sensor_id;sensor_type;location;lat;lon;timestamp;temperature;humidity
81869;DHT22;71320;52.252;13.382;2023-08-07T00:03:54;20.10;65.90
81869;DHT22;71320;52.252;13.382;2023-08-07T00:08:56;20.00;65.70
81869;DHT22;71320;52.252;13.382;2023-08-07T00:13:57;20.00;65.50
81869;DHT22;71320;52.252;13.382;2023-08-07T00:19:01;20.10;65.50
81869;DHT22;71320;52.252;13.382;2023-08-07T00:24:03;20.00;65.10
81869;DHT22;71320;52.252;13.382;2023-08-07T00:29:05;20.00;65.10
81869;DHT22;71320;52.252;13.382;2023-08-07T00:34:08;20.00;65.10
81869;DHT22;71320;52.252;13.382;2023-08-07T00:39:10;20.00;64.90
81869;DHT22;71320;52.252;13.382;2023-08-07T00:44:14;20.00;64.70
81869;DHT22;71320;52.252;13.382;2023-08-07T00:49:17;19.90;65.40
81869;DHT22;71320;52.252;13.382;2023-08-07T00:54:19;19.90;64.90
81869;DHT22;71320;52.252;13.382;2023-08-07T00:59:21;19.90;64.90
81869;DHT22;71320;52.252;13.382;2023-08-07T01:04:25;19.90;65.00
81869;DHT22;71320;52.252;13.382;2023-08-07T01:09:27;19.90;65.10
81869;DHT22;71320;52.252;13.382;2023-08-07T01:14:36;19.90;65.30
81869;DHT22;71320;52.252;13.382;2023-08-07T01:19:41;19.90;65.30
81869;DHT22;71320;52.252;13.382;2023-08-07T01:24:45;19.90;66.30
81869;DHT22;71320;52.252;13.382;2023-08-07T01:29:52;19.80;65.60
81869;DHT22;71320;52.252;13.382;2023-08-07T01:34:56;19.90;65.90
81869;DHT22;71320;52.252;13.382;2023-08-07T01:40:02;19.90;65.90
81869;DHT22;71320;52.252;13.382;2023-08-07T01:45:05;19.90;65.80
81869;DHT22;71320;52.252;13.382;2023-08-07T01:50:07;19.90;65.80
81869;DHT22;71320;52.252;13.382;2023-08-07T01:55:10;19.90;65.80
81869;DHT22;71320;52.252;13.382;2023-08-07T02:00:12;19.80;65.70
81869;DHT22;71320;52.252;13.382;2023-08-07T02:05:17;19.80;65.80
81869;DHT22;71320;52.252;13.382;2023-08-07T02:10:19;19.80;65.80
81869;DHT22;71320;52.252;13.382;2023-08-07T02:15:21;19.80;65.90
81869;DHT22;71320;52.252;13.382;2023-08-07T02:20:25;19.90;66.00
81869;DHT22;71320;52.252;13.382;2023-08-07T02:25:28;19.80;66.00
81869;DHT22;71320;52.252;13.382;2023-08-07T02:30:30;19.80;66.00
81869;DHT22;71320;52.252;13.382;2023-08-07T02:35:32;19.80;66.00
81869;DHT22;71320;52.252;13.382;2023-08-07T02:40:35;19.80;66.00
81869;DHT22;71320;52.252;13.382;2023-08-07T02:45:36;19.80;66.00
81869;DHT22;71320;52.252;13.382;2023-08-07T02:50:38;19.80;65.90
81869;DHT22;71320;52.252;13.382;2023-08-07T02:55:42;19.80;65.80
81869;DHT22;71320;52.252;13.382;2023-08-07T03:00:44;19.80;65.60
81869;DHT22;71320;52.252;13.382;2023-08-07T03:05:49;19.80;65.80
81869;DHT22;71320;52.252;13.382;2023-08-07T03:10:54;19.80;65.70
81869;DHT22;71320;52.252;13.382;2023-08-07T03:15:59;19.80;65.80
81869;DHT22;71320;52.252;13.382;2023-08-07T03:21:01;19.80;65.80
81869;DHT22;71320;52.252;13.382;2023-08-07T03:26:05;19.80;65.80
81869;DHT22;71320;52.252;13.382;2023-08-07T03:31:07;19.70;65.70
81869;DHT22;71320;52.252;13.382;2023-08-07T03:36:10;19.70;65.90
81869;DHT22;71320;52.252;13.382;2023-08-07T03:41:14;19.70;66.00
81869;DHT22;71320;52.252;13.382;2023-08-07T03:46:16;19.70;66.00
81869;DHT22;71320;52.252;13.382;2023-08-07T03:51:18;19.70;66.20
81869;DHT22;71320;52.252;13.382;2023-08-07T03:56:27;19.70;66.20
81869;DHT22;71320;52.252;13.382;2023-08-07T04:01:32;19.70;66.20
81869;DHT22;71320;52.252;13.382;2023-08-07T04:06:34;19.80;66.20
81869;DHT22;71320;52.252;13.382;2023-08-07T04:11:37;19.80;66.20
81869;DHT22;71320;52.252;13.382;2023-08-07T04:16:39;19.80;66.20
81869;DHT22;71320;52.252;13.382;2023-08-07T04:21:41;19.80;66.20
81869;DHT22;71320;52.252;13.382;2023-08-07T04:26:44;19.80;66.60
81869;DHT22;71320;52.252;13.382;2023-08-07T04:31:46;19.80;66.40
81869;DHT22;71320;52.252;13.382;2023-08-07T04:36:48;19.80;66.30
81869;DHT22;71320;52.252;13.382;2023-08-07T04:41:52;19.80;66.30
81869;DHT22;71320;52.252;13.382;2023-08-07T04:46:53;19.80;66.30
81869;DHT22;71320;52.252;13.382;2023-08-07T04:51:55;19.80;66.10
81869;DHT22;71320;52.252;13.382;2023-08-07T04:56:58;19.80;66.00
81869;DHT22;71320;52.252;13.382;2023-08-07T05:01:59;19.80;66.20
81869;DHT22;71320;52.252;13.382;2023-08-07T05:07:01;19.80;66.10
81869;DHT22;71320;52.252;13.382;2023-08-07T05:12:06;19.90;66.10
81869;DHT22;71320;52.252;13.382;2023-08-07T05:17:08;19.90;66.30
81869;DHT22;71320;52.252;13.382;2023-08-07T05:22:10;19.90;66.00
81869;DHT22;71320;52.252;13.382;2023-08-07T05:27:13;19.90;65.90
81869;DHT22;71320;52.252;13.382;2023-08-07T05:32:15;19.90;65.90
81869;DHT22;71320;52.252;13.382;2023-08-07T05:37:16;19.90;65.80
81869;DHT22;71320;52.252;13.382;2023-08-07T05:42:19;20.00;65.90
81869;DHT22;71320;52.252;13.382;2023-08-07T05:47:21;20.10;65.60
81869;DHT22;71320;52.252;13.382;2023-08-07T05:52:23;20.30;65.70
81869;DHT22;71320;52.252;13.382;2023-08-07T05:57:26;20.40;65.30
81869;DHT22;71320;52.252;13.382;2023-08-07T06:02:27;20.40;65.00
81869;DHT22;71320;52.252;13.382;2023-08-07T06:07:29;20.60;65.20
81869;DHT22;71320;52.252;13.382;2023-08-07T06:12:32;20.60;65.10
81869;DHT22;71320;52.252;13.382;2023-08-07T06:17:34;20.70;64.90
81869;DHT22;71320;52.252;13.382;2023-08-07T06:22:35;20.80;64.80
81869;DHT22;71320;52.252;13.382;2023-08-07T06:27:38;20.80;64.80
81869;DHT22;71320;52.252;13.382;2023-08-07T06:32:40;20.90;64.60
81869;DHT22;71320;52.252;13.382;2023-08-07T06:37:41;20.90;64.50
81869;DHT22;71320;52.252;13.382;2023-08-07T06:42:44;20.90;64.70
81869;DHT22;71320;52.252;13.382;2023-08-07T06:47:46;20.90;64.70
81869;DHT22;71320;52.252;13.382;2023-08-07T06:52:47;21.00;64.70
81869;DHT22;71320;52.252;13.382;2023-08-07T06:57:50;21.10;64.60
81869;DHT22;71320;52.252;13.382;2023-08-07T07:02:51;21.10;64.40
81869;DHT22;71320;52.252;13.382;2023-08-07T07:07:53;21.10;64.40
81869;DHT22;71320;52.252;13.382;2023-08-07T07:12:56;21.10;64.00
81869;DHT22;71320;52.252;13.382;2023-08-07T07:17:58;21.10;64.20
81869;DHT22;71320;52.252;13.382;2023-08-07T07:23:00;21.20;63.80
81869;DHT22;71320;52.252;13.382;2023-08-07T07:28:03;21.20;63.60
81869;DHT22;71320;52.252;13.382;2023-08-07T07:33:04;21.30;63.30
81869;DHT22;71320;52.252;13.382;2023-08-07T07:38:07;21.40;63.50
81869;DHT22;71320;52.252;13.382;2023-08-07T07:43:10;21.40;63.30
81869;DHT22;71320;52.252;13.382;2023-08-07T07:48:12;21.50;63.30
81869;DHT22;71320;52.252;13.382;2023-08-07T07:53:13;21.60;63.10
81869;DHT22;71320;52.252;13.382;2023-08-07T07:58:16;21.60;63.10
81869;DHT22;71320;52.252;13.382;2023-08-07T08:03:18;21.60;62.70
81869;DHT22;71320;52.252;13.382;2023-08-07T08:08:19;21.70;62.90
81869;DHT22;71320;52.252;13.382;2023-08-07T08:13:22;21.70;62.60
81869;DHT22;71320;52.252;13.382;2023-08-07T08:18:25;21.80;62.20
81869;DHT22;71320;52.252;13.382;2023-08-07T08:23:27;21.80;62.10
81869;DHT22;71320;52.252;13.382;2023-08-07T08:28:30;21.90;62.20
81869;DHT22;71320;52.252;13.382;2023-08-07T08:33:31;22.00;62.10
81869;DHT22;71320;52.252;13.382;2023-08-07T08:38:33;22.10;62.20
81869;DHT22;71320;52.252;13.382;2023-08-07T08:43:37;22.20;62.20
81869;DHT22;71320;52.252;13.382;2023-08-07T08:48:39;22.20;62.10
81869;DHT22;71320;52.252;13.382;2023-08-07T08:53:41;22.30;62.40
81869;DHT22;71320;52.252;13.382;2023-08-07T08:58:44;22.30;62.40
81869;DHT22;71320;52.252;13.382;2023-08-07T09:03:46;22.40;62.20
81869;DHT22;71320;52.252;13.382;2023-08-07T09:08:48;22.40;62.30
81869;DHT22;71320;52.252;13.382;2023-08-07T09:13:51;22.40;62.00
81869;DHT22;71320;52.252;13.382;2023-08-07T09:18:54;22.40;62.10
81869;DHT22;71320;52.252;13.382;2023-08-07T09:23:56;22.50;62.40
81869;DHT22;71320;52.252;13.382;2023-08-07T09:28:59;22.50;62.40
81869;DHT22;71320;52.252;13.382;2023-08-07T09:34:03;22.60;62.50
81869;DHT22;71320;52.252;13.382;2023-08-07T09:39:05;22.60;62.40
81869;DHT22;71320;52.252;13.382;2023-08-07T09:44:09;22.60;62.30
81869;DHT22;71320;52.252;13.382;2023-08-07T09:49:11;22.60;62.10
81869;DHT22;71320;52.252;13.382;2023-08-07T09:54:13;22.70;62.30
81869;DHT22;71320;52.252;13.382;2023-08-07T09:59:16;22.70;62.20
81869;DHT22;71320;52.252;13.382;2023-08-07T10:04:17;22.60;61.70
81869;DHT22;71320;52.252;13.382;2023-08-07T10:09:19;22.50;61.80
81869;DHT22;71320;52.252;13.382;2023-08-07T10:14:23;22.50;61.80
81869;DHT22;71320;52.252;13.382;2023-08-07T10:19:24;22.50;61.60
81869;DHT22;71320;52.252;13.382;2023-08-07T10:24:26;22.50;61.70
81869;DHT22;71320;52.252;13.382;2023-08-07T10:29:29;22.50;61.40
81869;DHT22;71320;52.252;13.382;2023-08-07T10:34:32;22.50;61.40
81869;DHT22;71320;52.252;13.382;2023-08-07T10:39:34;22.50;61.40
81869;DHT22;71320;52.252;13.382;2023-08-07T10:44:44;22.70;61.60
81869;DHT22;71320;52.252;13.382;2023-08-07T10:49:49;22.70;61.50
81869;DHT22;71320;52.252;13.382;2023-08-07T10:54:50;22.80;61.20
81869;DHT22;71320;52.252;13.382;2023-08-07T11:00:02;22.70;59.70
81869;DHT22;71320;52.252;13.382;2023-08-07T11:05:06;22.70;59.10
81869;DHT22;71320;52.252;13.382;2023-08-07T11:10:08;22.60;58.70
81869;DHT22;71320;52.252;13.382;2023-08-07T11:15:13;22.70;58.70
81869;DHT22;71320;52.252;13.382;2023-08-07T11:20:15;22.60;58.30
81869;DHT22;71320;52.252;13.382;2023-08-07T11:25:17;22.60;57.90
81869;DHT22;71320;52.252;13.382;2023-08-07T11:30:21;22.70;58.00
81869;DHT22;71320;52.252;13.382;2023-08-07T11:35:23;22.70;57.90
81869;DHT22;71320;52.252;13.382;2023-08-07T11:40:24;22.70;58.00
81869;DHT22;71320;52.252;13.382;2023-08-07T11:45:27;22.70;57.90
81869;DHT22;71320;52.252;13.382;2023-08-07T11:50:29;22.70;57.70
81869;DHT22;71320;52.252;13.382;2023-08-07T11:55:31;22.70;57.80
81869;DHT22;71320;52.252;13.382;2023-08-07T12:00:34;22.70;57.30
81869;DHT22;71320;52.252;13.382;2023-08-07T12:05:37;22.70;57.40
81869;DHT22;71320;52.252;13.382;2023-08-07T12:10:40;22.70;57.20
81869;DHT22;71320;52.252;13.382;2023-08-07T12:15:43;22.70;57.10
81869;DHT22;71320;52.252;13.382;2023-08-07T12:20:45;22.80;57.30
81869;DHT22;71320;52.252;13.382;2023-08-07T12:25:46;22.80;57.10
81869;DHT22;71320;52.252;13.382;2023-08-07T12:30:50;22.90;56.80
81869;DHT22;71320;52.252;13.382;2023-08-07T12:35:52;22.90;56.80
81869;DHT22;71320;52.252;13.382;2023-08-07T12:40:53;22.90;56.80
81869;DHT22;71320;52.252;13.382;2023-08-07T12:45:56;22.90;56.50
81869;DHT22;71320;52.252;13.382;2023-08-07T12:50:58;22.80;56.30
81869;DHT22;71320;52.252;13.382;2023-08-07T12:55:59;22.80;56.30
81869;DHT22;71320;52.252;13.382;2023-08-07T13:01:03;22.70;57.40
81869;DHT22;71320;52.252;13.382;2023-08-07T13:06:05;22.70;58.00
81869;DHT22;71320;52.252;13.382;2023-08-07T13:11:08;22.70;58.20
81869;DHT22;71320;52.252;13.382;2023-08-07T13:16:11;22.80;58.30
81869;DHT22;71320;52.252;13.382;2023-08-07T13:21:13;22.80;58.20
81869;DHT22;71320;52.252;13.382;2023-08-07T13:26:15;22.80;58.00
81869;DHT22;71320;52.252;13.382;2023-08-07T13:31:19;22.80;58.00
81869;DHT22;71320;52.252;13.382;2023-08-07T13:36:21;22.80;57.90
81869;DHT22;71320;52.252;13.382;2023-08-07T13:41:22;22.70;58.20
81869;DHT22;71320;52.252;13.382;2023-08-07T13:46:25;22.60;58.00
81869;DHT22;71320;52.252;13.382;2023-08-07T13:51:27;22.60;57.90
81869;DHT22;71320;52.252;13.382;2023-08-07T13:56:28;22.60;57.90
81869;DHT22;71320;52.252;13.382;2023-08-07T14:01:31;22.60;58.00
81869;DHT22;71320;52.252;13.382;2023-08-07T14:06:33;22.60;57.90
81869;DHT22;71320;52.252;13.382;2023-08-07T14:11:35;22.60;57.70
81869;DHT22;71320;52.252;13.382;2023-08-07T14:16:38;22.60;57.70
81869;DHT22;71320;52.252;13.382;2023-08-07T14:21:39;22.50;57.80
81869;DHT22;71320;52.252;13.382;2023-08-07T14:26:41;22.40;57.60
81869;DHT22;71320;52.252;13.382;2023-08-07T14:31:44;22.40;57.70
81869;DHT22;71320;52.252;13.382;2023-08-07T14:36:45;22.40;57.60
81869;DHT22;71320;52.252;13.382;2023-08-07T14:41:47;22.40;57.40
81869;DHT22;71320;52.252;13.382;2023-08-07T14:46:53;22.40;56.90
81869;DHT22;71320;52.252;13.382;2023-08-07T14:51:55;22.30;56.30
81869;DHT22;71320;52.252;13.382;2023-08-07T14:56:57;22.30;56.10
81869;DHT22;71320;52.252;13.382;2023-08-07T15:02:00;22.30;55.80
81869;DHT22;71320;52.252;13.382;2023-08-07T15:07:02;22.20;55.10
81869;DHT22;71320;52.252;13.382;2023-08-07T15:12:04;22.20;54.70
81869;DHT22;71320;52.252;13.382;2023-08-07T15:17:08;22.20;54.70
81869;DHT22;71320;52.252;13.382;2023-08-07T15:22:09;22.20;54.40
81869;DHT22;71320;52.252;13.382;2023-08-07T15:27:11;22.20;54.00
81869;DHT22;71320;52.252;13.382;2023-08-07T15:32:14;22.20;54.40
81869;DHT22;71320;52.252;13.382;2023-08-07T15:37:19;22.10;53.30
81869;DHT22;71320;52.252;13.382;2023-08-07T15:42:20;22.10;53.40
81869;DHT22;71320;52.252;13.382;2023-08-07T15:47:23;22.10;53.80
81869;DHT22;71320;52.252;13.382;2023-08-07T15:52:24;22.10;53.50
81869;DHT22;71320;52.252;13.382;2023-08-07T15:57:26;22.10;53.00
81869;DHT22;71320;52.252;13.382;2023-08-07T16:02:29;22.10;53.30
81869;DHT22;71320;52.252;13.382;2023-08-07T16:07:31;22.10;53.30
81869;DHT22;71320;52.252;13.382;2023-08-07T16:12:33;22.10;53.30
81869;DHT22;71320;52.252;13.382;2023-08-07T16:17:35;22.00;53.00
81869;DHT22;71320;52.252;13.382;2023-08-07T16:22:37;22.00;53.40
81869;DHT22;71320;52.252;13.382;2023-08-07T16:27:39;22.00;54.20
81869;DHT22;71320;52.252;13.382;2023-08-07T16:32:42;22.00;53.40
81869;DHT22;71320;52.252;13.382;2023-08-07T16:37:43;22.00;52.90
81869;DHT22;71320;52.252;13.382;2023-08-07T16:42:45;22.00;52.40
81869;DHT22;71320;52.252;13.382;2023-08-07T16:47:48;22.00;52.30
81869;DHT22;71320;52.252;13.382;2023-08-07T16:52:50;22.00;52.20
81869;DHT22;71320;52.252;13.382;2023-08-07T16:57:51;21.90;52.20
81869;DHT22;71320;52.252;13.382;2023-08-07T17:02:54;21.80;52.20
81869;DHT22;71320;52.252;13.382;2023-08-07T17:07:59;21.80;52.30
81869;DHT22;71320;52.252;13.382;2023-08-07T17:13:00;21.80;52.40
81869;DHT22;71320;52.252;13.382;2023-08-07T17:18:03;21.80;52.50
81869;DHT22;71320;52.252;13.382;2023-08-07T17:23:05;21.80;52.70
81869;DHT22;71320;52.252;13.382;2023-08-07T17:28:07;21.80;52.70
81869;DHT22;71320;52.252;13.382;2023-08-07T17:33:09;21.80;52.40
81869;DHT22;71320;52.252;13.382;2023-08-07T17:38:11;21.80;52.40
81869;DHT22;71320;52.252;13.382;2023-08-07T17:43:13;21.70;52.50
81869;DHT22;71320;52.252;13.382;2023-08-07T17:48:17;21.70;51.90
81869;DHT22;71320;52.252;13.382;2023-08-07T17:53:18;21.60;52.00
81869;DHT22;71320;52.252;13.382;2023-08-07T17:58:20;21.60;51.60
81869;DHT22;71320;52.252;13.382;2023-08-07T18:03:23;21.60;51.30
81869;DHT22;71320;52.252;13.382;2023-08-07T18:08:25;21.50;50.90
81869;DHT22;71320;52.252;13.382;2023-08-07T18:13:26;21.50;50.50
81869;DHT22;71320;52.252;13.382;2023-08-07T18:18:29;21.50;50.40
81869;DHT22;71320;52.252;13.382;2023-08-07T18:23:31;21.40;50.00
81869;DHT22;71320;52.252;13.382;2023-08-07T18:28:33;21.40;50.00
81869;DHT22;71320;52.252;13.382;2023-08-07T18:33:36;21.40;50.00
81869;DHT22;71320;52.252;13.382;2023-08-07T18:38:37;21.30;49.90
81869;DHT22;71320;52.252;13.382;2023-08-07T18:43:39;21.30;50.00
81869;DHT22;71320;52.252;13.382;2023-08-07T18:48:42;21.20;50.20
81869;DHT22;71320;52.252;13.382;2023-08-07T18:53:43;21.30;50.60
81869;DHT22;71320;52.252;13.382;2023-08-07T18:58:45;21.40;51.00
81869;DHT22;71320;52.252;13.382;2023-08-07T19:03:47;21.40;51.40
81869;DHT22;71320;52.252;13.382;2023-08-07T19:08:49;21.40;51.50
81869;DHT22;71320;52.252;13.382;2023-08-07T19:13:51;21.50;51.80
81869;DHT22;71320;52.252;13.382;2023-08-07T19:18:53;21.50;51.90
81869;DHT22;71320;52.252;13.382;2023-08-07T19:23:55;21.50;52.10
81869;DHT22;71320;52.252;13.382;2023-08-07T19:28:57;21.50;52.20
81869;DHT22;71320;52.252;13.382;2023-08-07T19:33:59;21.50;52.30
81869;DHT22;71320;52.252;13.382;2023-08-07T19:39:01;21.50;52.40
81869;DHT22;71320;52.252;13.382;2023-08-07T19:44:03;21.50;52.40
81869;DHT22;71320;52.252;13.382;2023-08-07T19:49:06;21.50;52.40
81869;DHT22;71320;52.252;13.382;2023-08-07T19:54:08;21.50;52.60
81869;DHT22;71320;52.252;13.382;2023-08-07T19:59:09;21.50;52.60
81869;DHT22;71320;52.252;13.382;2023-08-07T20:04:12;21.50;52.70
81869;DHT22;71320;52.252;13.382;2023-08-07T20:09:14;21.50;52.60
81869;DHT22;71320;52.252;13.382;2023-08-07T20:14:16;21.50;52.60
81869;DHT22;71320;52.252;13.382;2023-08-07T20:19:19;21.50;52.50
81869;DHT22;71320;52.252;13.382;2023-08-07T20:24:21;21.50;52.50
81869;DHT22;71320;52.252;13.382;2023-08-07T20:29:22;21.50;52.60
81869;DHT22;71320;52.252;13.382;2023-08-07T20:34:25;21.50;52.50
81869;DHT22;71320;52.252;13.382;2023-08-07T20:39:27;21.50;52.50
81869;DHT22;71320;52.252;13.382;2023-08-07T20:44:28;21.50;52.50
81869;DHT22;71320;52.252;13.382;2023-08-07T20:49:31;21.50;52.50
81869;DHT22;71320;52.252;13.382;2023-08-07T20:54:33;21.40;52.50
81869;DHT22;71320;52.252;13.382;2023-08-07T20:59:35;21.40;52.50
81869;DHT22;71320;52.252;13.382;2023-08-07T21:04:37;21.40;52.50
81869;DHT22;71320;52.252;13.382;2023-08-07T21:09:39;21.40;52.50
81869;DHT22;71320;52.252;13.382;2023-08-07T21:14:40;21.40;52.50
81869;DHT22;71320;52.252;13.382;2023-08-07T21:19:45;21.40;52.50
81869;DHT22;71320;52.252;13.382;2023-08-07T21:24:47;21.40;52.50
81869;DHT22;71320;52.252;13.382;2023-08-07T21:29:48;21.50;52.50
81869;DHT22;71320;52.252;13.382;2023-08-07T21:34:51;21.50;52.90
81869;DHT22;71320;52.252;13.382;2023-08-07T21:39:53;21.40;52.60
81869;DHT22;71320;52.252;13.382;2023-08-07T21:44:54;21.40;52.70
81869;DHT22;71320;52.252;13.382;2023-08-07T21:49:57;21.40;52.70
81869;DHT22;71320;52.252;13.382;2023-08-07T21:54:59;21.40;53.00
81869;DHT22;71320;52.252;13.382;2023-08-07T22:00:00;21.40;52.70
81869;DHT22;71320;52.252;13.382;2023-08-07T22:05:14;21.40;52.90
81869;DHT22;71320;52.252;13.382;2023-08-07T22:10:15;21.40;52.90
81869;DHT22;71320;52.252;13.382;2023-08-07T22:15:17;21.40;52.90
81869;DHT22;71320;52.252;13.382;2023-08-07T22:20:20;21.40;53.00
81869;DHT22;71320;52.252;13.382;2023-08-07T22:25:22;21.40;53.00
81869;DHT22;71320;52.252;13.382;2023-08-07T22:30:23;21.40;53.20
81869;DHT22;71320;52.252;13.382;2023-08-07T22:35:26;21.40;53.10
81869;DHT22;71320;52.252;13.382;2023-08-07T22:40:28;21.40;53.10
81869;DHT22;71320;52.252;13.382;2023-08-07T22:45:29;21.40;53.10
81869;DHT22;71320;52.252;13.382;2023-08-07T22:50:32;21.30;53.20
81869;DHT22;71320;52.252;13.382;2023-08-07T22:55:33;21.30;53.20
81869;DHT22;71320;52.252;13.382;2023-08-07T23:00:35;21.30;53.00
81869;DHT22;71320;52.252;13.382;2023-08-07T23:05:38;21.30;53.00
81869;DHT22;71320;52.252;13.382;2023-08-07T23:10:40;21.30;53.10
81869;DHT22;71320;52.252;13.382;2023-08-07T23:15:41;21.30;53.00
81869;DHT22;71320;52.252;13.382;2023-08-07T23:20:44;21.30;52.90
81869;DHT22;71320;52.252;13.382;2023-08-07T23:25:46;21.30;53.10
81869;DHT22;71320;52.252;13.382;2023-08-07T23:30:47;21.30;53.00
81869;DHT22;71320;52.252;13.382;2023-08-07T23:35:50;21.30;52.90
81869;DHT22;71320;52.252;13.382;2023-08-07T23:40:52;21.20;52.80
81869;DHT22;71320;52.252;13.382;2023-08-07T23:45:53;21.20;53.00
81869;DHT22;71320;52.252;13.382;2023-08-07T23:50:56;21.30;52.90
81869;DHT22;71320;52.252;13.382;2023-08-07T23:55:57;21.20;52.90
